Time;durP1;ratioP1;P1;durP2;ratioP2;P2;SDS_P1;SDS_P2;PMS_P1;PMS_P2;Temp;Humidity;BMP_temperature;BMP_pressure;BME280_temperature;BME280_humidity;BME280_pressure;Samples;Min_cycle;Max_cycle;Signal;HPM_P1;HPM_P2
2022/06/02 00:00:11;;;;;;;7.67;6.93;;;12.80;1.00;;;;;;4966629;28;20441;-54
2022/06/02 00:02:58;;;;;;;6.90;6.40;;;12.80;1.00;;;;;;4998816;28;20440;-52
2022/06/02 00:05:51;;;;;;;7.20;6.70;;;12.80;1.00;;;;;;4966630;28;20450;-56
2022/06/02 00:08:48;;;;;;;7.60;6.80;;;12.80;1.00;;;;;;4966244;28;20495;-53
2022/06/02 00:11:29;;;;;;;7.40;6.90;;;12.80;1.00;;;;;;4969011;28;20443;-53
2022/06/02 00:14:09;;;;;;;7.27;6.77;;;12.90;1.00;;;;;;4958547;28;20435;-55
2022/06/02 00:17:05;;;;;;;7.83;7.30;;;13.00;1.00;;;;;;4964762;28;20559;-54
2022/06/02 00:19:46;;;;;;;6.80;6.40;;;13.00;1.00;;;;;;4960669;28;20502;-56
2022/06/02 00:22:23;;;;;;;7.67;7.07;;;13.10;1.00;;;;;;4963024;28;20523;-53
2022/06/02 00:25:00;;;;;;;7.87;7.37;;;13.20;1.00;;;;;;4968908;28;20439;-53
2022/06/02 00:27:32;;;;;;;6.80;6.30;;;13.30;1.00;;;;;;4958128;28;20868;-53
2022/06/02 00:30:32;;;;;;;6.90;6.40;;;13.30;1.00;;;;;;4958069;28;20432;-56
2022/06/02 00:33:23;;;;;;;7.00;6.50;;;13.40;1.00;;;;;;4972715;28;20518;-52
2022/06/02 00:36:00;;;;;;;7.87;7.07;;;13.40;1.00;;;;;;4964941;28;20464;-54
2022/06/02 00:38:26;;;;;;;7.60;7.00;;;13.40;1.00;;;;;;4972624;28;20469;-54
2022/06/02 00:40:52;;;;;;;7.80;7.20;;;13.40;1.00;;;;;;4969601;28;20447;-57
2022/06/02 00:43:30;;;;;;;7.70;7.20;;;13.40;1.00;;;;;;4971995;28;20624;-52
2022/06/02 00:46:34;;;;;;;7.77;7.17;;;13.40;1.00;;;;;;4973501;28;20451;-53
2022/06/02 00:49:14;;;;;;;7.77;7.17;;;13.40;1.00;;;;;;4969977;28;20432;-53
2022/06/02 00:51:52;;;;;;;8.73;8.07;;;13.40;1.00;;;;;;4969302;28;20527;-53
2022/06/02 00:57:48;;;;;;;8.17;7.57;;;13.40;1.00;;;;;;4977274;28;20486;-52
2022/06/02 01:00:28;;;;;;;7.60;7.10;;;13.30;1.00;;;;;;4977742;28;20443;-51
2022/06/02 01:03:04;;;;;;;7.90;7.40;;;13.40;1.00;;;;;;4971430;28;20446;-51
2022/06/02 01:06:08;;;;;;;7.80;7.30;;;13.30;1.00;;;;;;4970785;28;20957;-51
2022/06/02 01:08:46;;;;;;;7.20;6.70;;;13.30;1.00;;;;;;4971722;28;20926;-51
2022/06/02 01:11:30;;;;;;;7.50;6.90;;;13.30;1.00;;;;;;4967880;28;20437;-53
2022/06/02 01:14:21;;;;;;;7.13;6.63;;;13.40;1.00;;;;;;4984794;28;20516;-53
2022/06/02 01:17:15;;;;;;;7.97;7.43;;;13.30;1.00;;;;;;4963999;28;20824;-56
2022/06/02 01:19:59;;;;;;;7.63;7.03;;;13.40;1.00;;;;;;4972479;28;20800;-54
2022/06/02 01:22:45;;;;;;;8.30;7.50;;;13.30;1.00;;;;;;4971495;28;20812;-53
2022/06/02 01:25:19;;;;;;;8.13;7.43;;;13.30;1.00;;;;;;4972715;28;20428;-52
2022/06/02 01:28:02;;;;;;;7.10;6.50;;;13.20;1.00;;;;;;4974685;28;20489;-54
2022/06/02 01:30:57;;;;;;;8.30;7.70;;;13.20;1.00;;;;;;4972130;28;20439;-55
2022/06/02 01:33:43;;;;;;;8.37;7.77;;;13.20;1.00;;;;;;4971845;28;20443;-55
2022/06/02 01:36:25;;;;;;;8.03;7.43;;;13.10;1.00;;;;;;4957072;28;20572;-54
2022/06/02 01:38:56;;;;;;;9.47;8.77;;;13.30;1.00;;;;;;4976128;28;20423;-53
2022/06/02 01:41:25;;;;;;;8.67;8.07;;;13.10;1.00;;;;;;4970466;28;20886;-54
2022/06/02 01:44:13;;;;;;;9.27;8.57;;;13.00;1.00;;;;;;4971089;28;20444;-53
2022/06/02 01:47:01;;;;;;;8.83;8.13;;;12.80;1.00;;;;;;4970411;28;20455;-52
2022/06/02 01:49:47;;;;;;;9.30;8.60;;;12.70;1.00;;;;;;4966263;28;20456;-54
2022/06/02 01:52:48;;;;;;;9.50;8.70;;;12.70;1.00;;;;;;4970668;28;20444;-52
2022/06/02 01:55:25;;;;;;;8.47;7.87;;;12.60;1.00;;;;;;4977707;28;20813;-50
2022/06/02 01:58:15;;;;;;;8.50;7.87;;;12.60;5.60;;;;;;4981656;28;20479;-56
2022/06/02 02:00:43;;;;;;;8.07;7.43;;;12.50;30.60;;;;;;4967602;28;20453;-55
2022/06/02 02:03:23;;;;;;;7.60;7.00;;;12.40;14.60;;;;;;4975674;28;20523;-56
2022/06/02 02:06:18;;;;;;;7.90;7.30;;;12.40;1.00;;;;;;4975025;28;20440;-54
2022/06/02 02:09:07;;;;;;;7.80;7.20;;;12.40;1.00;;;;;;4970671;28;20579;-55
2022/06/02 02:11:45;;;;;;;9.20;7.63;;;12.40;2.40;;;;;;4966738;28;20443;-55
2022/06/02 02:14:24;;;;;;;8.13;7.43;;;12.30;8.90;;;;;;4968479;28;20503;-52
2022/06/02 02:17:05;;;;;;;8.50;7.80;;;12.10;23.70;;;;;;4964234;28;20994;-54
2022/06/02 02:19:49;;;;;;;8.63;7.93;;;12.10;32.80;;;;;;4963801;28;21204;-53
2022/06/02 02:22:39;;;;;;;8.30;7.60;;;12.00;26.80;;;;;;4980268;28;20443;-50
2022/06/02 02:25:19;;;;;;;8.33;7.63;;;11.90;29.00;;;;;;4964409;28;21003;-52
2022/06/02 02:28:03;;;;;;;8.07;7.40;;;11.90;41.50;;;;;;4970238;28;20423;-48
2022/06/02 02:30:43;;;;;;;8.10;7.40;;;11.80;44.00;;;;;;4979194;28;20482;-51
2022/06/02 02:33:11;;;;;;;7.73;7.03;;;11.70;47.20;;;;;;4970511;28;20478;-53
2022/06/02 02:35:49;;;;;;;8.13;7.43;;;11.60;53.50;;;;;;4971331;28;20491;-51
2022/06/02 02:38:24;;;;;;;8.70;7.90;;;11.50;62.60;;;;;;4968044;28;20911;-53
2022/06/02 02:40:58;;;;;;;8.27;7.67;;;11.40;77.10;;;;;;4982937;28;20442;-55
2022/06/02 02:43:38;;;;;;;8.60;7.70;;;11.30;84.50;;;;;;4965111;28;20440;-56
2022/06/02 02:46:26;;;;;;;8.23;7.13;;;11.20;90.60;;;;;;4969484;28;20418;-53
2022/06/02 02:49:12;;;;;;;8.27;7.57;;;11.20;96.50;;;;;;4969064;28;20530;-54
2022/06/02 02:51:57;;;;;;;8.47;7.67;;;11.10;99.70;;;;;;4966854;28;20444;-52
2022/06/02 02:54:33;;;;;;;8.63;7.83;;;11.00;99.90;;;;;;4963373;28;20860;-53
2022/06/02 02:57:42;;;;;;;9.30;8.40;;;10.90;99.90;;;;;;4966552;28;20600;-54
2022/06/02 03:00:15;;;;;;;8.97;8.17;;;10.90;99.90;;;;;;4960588;28;20499;-52
2022/06/02 03:02:54;;;;;;;8.40;7.70;;;10.80;99.90;;;;;;4963578;28;20544;-52
2022/06/02 03:05:31;;;;;;;9.23;8.43;;;10.70;99.90;;;;;;4969035;28;20462;-51
2022/06/02 03:08:09;;;;;;;8.93;8.13;;;10.70;99.90;;;;;;4968634;28;20471;-51
2022/06/02 03:10:38;;;;;;;9.10;8.30;;;10.70;99.90;;;;;;4966775;28;20432;-51
2022/06/02 03:13:44;;;;;;;9.07;8.23;;;10.60;99.90;;;;;;4968388;28;20451;-52
2022/06/02 03:16:12;;;;;;;9.30;8.40;;;10.60;99.90;;;;;;4959677;28;20499;-55
2022/06/02 03:18:44;;;;;;;9.57;8.67;;;10.60;99.90;;;;;;4968617;28;20452;-52
2022/06/02 03:21:18;;;;;;;9.00;8.20;;;10.60;99.90;;;;;;4969048;28;20440;-54
2022/06/02 03:24:08;;;;;;;9.27;8.40;;;10.60;99.90;;;;;;4965111;28;20471;-51
2022/06/02 03:26:41;;;;;;;9.00;8.20;;;10.60;99.90;;;;;;4969203;28;20506;-54
2022/06/02 03:29:28;;;;;;;9.30;8.47;;;10.50;99.90;;;;;;4982618;28;20440;-51
2022/06/02 03:32:03;;;;;;;8.57;7.77;;;10.50;99.90;;;;;;4982589;28;20471;-53
2022/06/02 03:34:46;;;;;;;8.70;7.90;;;10.50;99.90;;;;;;4964718;28;20448;-51
2022/06/02 03:37:39;;;;;;;9.60;8.67;;;10.50;99.90;;;;;;4970480;28;20559;-50
2022/06/02 03:40:10;;;;;;;9.40;8.20;;;10.50;99.90;;;;;;4970435;28;20446;-52
2022/06/02 03:42:53;;;;;;;8.97;8.07;;;10.50;99.90;;;;;;4970030;28;20816;-54
2022/06/02 03:45:41;;;;;;;8.60;7.80;;;10.50;99.90;;;;;;4962859;28;20468;-51
2022/06/02 03:48:42;;;;;;;9.13;8.33;;;10.50;99.90;;;;;;4971558;28;20479;-56
2022/06/02 03:51:28;;;;;;;8.77;7.97;;;10.50;99.90;;;;;;4974588;28;20456;-53
2022/06/02 03:54:30;;;;;;;10.07;9.07;;;10.50;99.90;;;;;;4969824;28;20441;-54
2022/06/02 03:57:26;;;;;;;7.90;7.20;;;10.50;99.90;;;;;;4968985;28;20836;-52
2022/06/02 04:00:07;;;;;;;9.30;8.50;;;10.50;99.90;;;;;;4967728;28;20942;-56
2022/06/02 04:02:51;;;;;;;8.80;7.97;;;10.60;99.90;;;;;;4971607;28;20439;-50
2022/06/02 04:05:25;;;;;;;10.10;7.83;;;10.60;99.90;;;;;;4967694;28;20799;-53
2022/06/02 04:08:16;;;;;;;8.60;7.80;;;10.60;99.90;;;;;;4967532;28;20552;-56
2022/06/02 04:11:04;;;;;;;8.73;7.80;;;10.80;97.80;;;;;;4957217;28;20436;-52
2022/06/02 04:14:19;;;;;;;8.63;7.83;;;10.90;85.00;;;;;;4971445;28;20448;-50
2022/06/02 04:17:08;;;;;;;8.50;7.80;;;11.00;68.90;;;;;;4969003;28;20475;-52
2022/06/02 04:20:40;;;;;;;7.57;6.87;;;11.10;55.90;;;;;;4971748;28;20467;-52
2022/06/02 04:23:23;;;;;;;8.77;7.87;;;11.30;43.80;;;;;;4995895;28;21222;-53
2022/06/02 04:25:59;;;;;;;7.87;7.17;;;11.40;35.00;;;;;;4988159;28;20458;-53
2022/06/02 04:28:41;;;;;;;9.33;8.53;;;11.40;37.10;;;;;;4991410;28;20525;-53
2022/06/02 04:31:38;;;;;;;8.77;7.97;;;11.40;32.70;;;;;;4985693;28;20437;-54
2022/06/02 04:34:39;;;;;;;7.90;7.20;;;11.50;30.50;;;;;;4993555;28;20941;-54
2022/06/02 04:37:19;;;;;;;8.40;7.70;;;11.60;25.80;;;;;;4989733;28;20465;-55
2022/06/02 04:39:50;;;;;;;8.67;7.77;;;11.70;13.10;;;;;;4994922;28;20434;-52
2022/06/02 04:42:42;;;;;;;8.23;7.60;;;11.70;13.00;;;;;;4986477;28;20942;-53
2022/06/02 04:45:25;;;;;;;8.93;8.13;;;11.80;4.50;;;;;;4991124;28;21034;-56
2022/06/02 04:47:57;;;;;;;8.30;7.60;;;11.80;2.20;;;;;;4995851;28;20450;-54
2022/06/02 04:50:37;;;;;;;8.33;7.53;;;11.90;5.30;;;;;;5008845;28;21183;-55
2022/06/02 04:53:15;;;;;;;8.67;7.87;;;11.90;9.50;;;;;;5002425;28;20454;-50
2022/06/02 04:56:07;;;;;;;8.80;7.90;;;11.90;11.00;;;;;;4973125;28;20479;-50
2022/06/02 04:58:45;;;;;;;9.03;8.23;;;12.00;1.00;;;;;;4966882;28;20547;-53
2022/06/02 05:01:34;;;;;;;8.57;7.87;;;12.10;1.00;;;;;;4965948;28;20445;-55
2022/06/02 05:04:20;;;;;;;9.07;8.17;;;12.20;1.00;;;;;;4974791;28;20804;-54
2022/06/02 05:07:04;;;;;;;9.27;8.37;;;12.20;1.00;;;;;;4964170;28;20876;-51
2022/06/02 05:09:48;;;;;;;9.40;8.50;;;12.30;1.00;;;;;;4973229;28;20417;-54
2022/06/02 05:12:20;;;;;;;8.30;7.60;;;12.30;1.00;;;;;;4967711;28;20448;-54
2022/06/02 05:15:11;;;;;;;8.87;8.07;;;12.40;1.00;;;;;;4983565;28;20450;-53
2022/06/02 05:17:51;;;;;;;9.40;8.50;;;12.40;1.00;;;;;;4961042;28;20977;-52
2022/06/02 05:20:56;;;;;;;8.70;8.00;;;12.50;1.00;;;;;;4972636;28;20424;-51
2022/06/02 05:24:01;;;;;;;9.53;8.73;;;12.60;1.00;;;;;;4964271;28;20547;-52
2022/06/02 05:26:35;;;;;;;8.77;7.97;;;12.60;1.00;;;;;;4972586;28;20918;-53
2022/06/02 05:29:10;;;;;;;8.77;7.97;;;12.70;1.00;;;;;;4967709;28;20478;-54
2022/06/02 05:32:12;;;;;;;8.87;8.07;;;12.70;1.00;;;;;;4982781;28;20937;-55
2022/06/02 05:35:07;;;;;;;9.40;8.60;;;12.80;1.00;;;;;;4971650;28;20915;-54
2022/06/02 05:37:47;;;;;;;8.17;7.47;;;12.80;1.00;;;;;;4971732;28;20413;-54
2022/06/02 05:40:48;;;;;;;8.87;8.07;;;12.90;1.00;;;;;;4966867;28;20444;-54
2022/06/02 05:43:33;;;;;;;9.00;8.30;;;13.00;1.00;;;;;;5001576;28;20559;-55
2022/06/02 05:46:10;;;;;;;12.17;8.80;;;13.10;1.00;;;;;;4970880;28;20436;-54
2022/06/02 05:48:54;;;;;;;9.00;8.20;;;13.20;1.00;;;;;;4972432;28;20431;-55
2022/06/02 05:51:35;;;;;;;8.80;8.00;;;13.10;1.00;;;;;;4962803;28;20440;-57
2022/06/02 05:54:11;;;;;;;9.20;8.40;;;13.20;1.00;;;;;;4967687;28;20432;-56
2022/06/02 05:56:50;;;;;;;9.70;8.87;;;13.30;1.00;;;;;;4971287;28;20512;-53
2022/06/02 05:59:16;;;;;;;9.90;9.07;;;13.30;1.00;;;;;;4959040;28;20916;-54
2022/06/02 06:02:00;;;;;;;8.73;8.00;;;13.40;1.00;;;;;;4982387;28;20449;-53
2022/06/02 06:04:57;;;;;;;10.70;8.33;;;13.40;1.00;;;;;;4970086;28;20719;-56
2022/06/02 06:07:42;;;;;;;9.07;8.30;;;13.40;1.00;;;;;;4965595;28;20448;-58
2022/06/02 06:10:17;;;;;;;8.90;8.20;;;13.50;1.00;;;;;;4971378;28;20467;-52
2022/06/02 06:12:54;;;;;;;15.10;9.00;;;13.50;1.00;;;;;;4971845;28;20423;-54
2022/06/02 06:15:38;;;;;;;9.77;8.77;;;13.50;1.00;;;;;;4977675;28;20476;-54
2022/06/02 06:18:44;;;;;;;10.27;9.33;;;13.60;1.00;;;;;;4967099;28;20974;-55
2022/06/02 06:21:22;;;;;;;9.83;9.03;;;13.60;1.00;;;;;;4977850;28;20439;-57
2022/06/02 06:24:15;;;;;;;9.60;8.70;;;13.70;1.00;;;;;;4965331;28;20460;-56
2022/06/02 06:26:54;;;;;;;9.20;8.30;;;13.90;1.00;;;;;;4971150;28;20565;-56
2022/06/02 06:29:43;;;;;;;8.90;8.13;;;13.70;1.00;;;;;;4970767;28;20436;-52
2022/06/02 06:32:38;;;;;;;9.20;8.43;;;13.80;1.00;;;;;;4969580;28;20427;-54
2022/06/02 06:35:31;;;;;;;9.40;8.37;;;13.80;1.00;;;;;;4960703;28;20472;-55
2022/06/02 06:38:08;;;;;;;9.30;8.50;;;13.90;99.90;;;;;;4971435;28;20427;-55
2022/06/02 06:40:42;;;;;;;8.30;7.67;;;14.00;99.90;;;;;;4975701;28;20451;-54
2022/06/02 06:43:35;;;;;;;9.67;8.87;;;14.20;99.90;;;;;;4969654;28;20457;-56
2022/06/02 06:46:27;;;;;;;8.37;7.60;;;14.30;99.90;;;;;;4969972;28;20522;-57
2022/06/02 06:49:00;;;;;;;8.57;7.87;;;14.40;99.90;;;;;;4985719;28;20444;-54
2022/06/02 06:51:50;;;;;;;8.37;7.67;;;14.50;1.00;;;;;;4963880;28;20490;-53
2022/06/02 06:54:33;;;;;;;8.10;7.50;;;14.60;1.00;;;;;;4970921;28;20428;-55
2022/06/02 06:57:05;;;;;;;8.33;7.63;;;14.70;1.00;;;;;;4981050;28;22141;-52
2022/06/02 06:59:33;;;;;;;8.87;8.17;;;14.70;99.90;;;;;;4967030;28;20428;-52
2022/06/02 07:02:12;;;;;;;8.00;7.40;;;14.80;1.00;;;;;;4969823;28;20441;-56
2022/06/02 07:05:10;;;;;;;8.03;7.47;;;14.90;1.00;;;;;;4970690;28;20466;-55
2022/06/02 07:07:46;;;;;;;6.80;6.30;;;15.10;1.00;;;;;;4970267;28;20930;-54
2022/06/02 07:10:20;;;;;;;6.77;6.27;;;15.20;99.90;;;;;;4970549;28;20420;-55
2022/06/02 07:12:58;;;;;;;7.60;7.00;;;15.50;1.00;;;;;;4968576;28;20439;-56
2022/06/02 07:15:40;;;;;;;8.20;7.27;;;15.60;1.00;;;;;;4979420;28;20467;-54
2022/06/02 07:18:24;;;;;;;7.13;6.53;;;15.70;99.90;;;;;;4971574;28;20523;-55
2022/06/02 07:21:04;;;;;;;7.83;7.30;;;15.60;5.90;;;;;;4970494;28;20431;-56
2022/06/02 07:23:48;;;;;;;6.77;6.30;;;15.70;99.90;;;;;;4969293;28;21247;-54
2022/06/02 07:26:31;;;;;;;7.30;6.80;;;15.80;99.90;;;;;;4970787;28;20451;-56
2022/06/02 07:29:34;;;;;;;7.20;6.70;;;15.90;99.90;;;;;;4965754;28;20965;-54
2022/06/02 07:32:17;;;;;;;7.17;6.67;;;16.20;41.70;;;;;;4970413;28;21192;-54
2022/06/02 07:34:43;;;;;;;6.97;6.37;;;16.30;1.00;;;;;;4960711;28;20438;-55
2022/06/02 07:37:42;;;;;;;6.73;6.33;;;16.40;1.00;;;;;;4962285;28;20515;-57
2022/06/02 07:40:33;;;;;;;6.90;6.50;;;16.40;99.90;;;;;;4967822;28;20192;-53
2022/06/02 07:43:21;;;;;;;6.43;5.93;;;16.40;99.90;;;;;;4969549;28;20519;-55
2022/06/02 07:46:09;;;;;;;6.10;5.80;;;16.50;99.90;;;;;;4978065;28;20525;-51
2022/06/02 07:49:06;;;;;;;6.30;5.90;;;16.80;99.90;;;;;;4962572;28;20423;-54
2022/06/02 07:51:43;;;;;;;7.20;6.70;;;17.00;7.40;;;;;;4960785;28;20770;-56
2022/06/02 07:54:47;;;;;;;6.90;6.40;;;17.00;1.00;;;;;;4971937;28;20429;-54
2022/06/02 07:57:24;;;;;;;6.87;6.40;;;16.80;1.00;;;;;;4974643;28;20493;-56
2022/06/02 08:00:14;;;;;;;6.90;6.40;;;16.90;1.00;;;;;;4971338;28;20483;-57
2022/06/02 08:02:45;;;;;;;6.50;6.10;;;16.90;1.00;;;;;;4969205;28;20427;-54
2022/06/02 08:05:28;;;;;;;7.80;7.30;;;16.90;1.00;;;;;;4971944;28;20425;-52
2022/06/02 08:07:59;;;;;;;6.90;6.50;;;17.00;1.00;;;;;;4958737;28;20419;-54
2022/06/02 08:10:52;;;;;;;7.20;6.80;;;17.10;1.00;;;;;;4954295;28;20427;-54
2022/06/02 08:13:27;;;;;;;6.67;6.17;;;17.30;1.00;;;;;;4969938;28;20423;-56
2022/06/02 08:16:49;;;;;;;7.50;7.10;;;17.40;1.00;;;;;;4975511;28;20466;-54
2022/06/02 08:19:41;;;;;;;6.57;6.07;;;17.50;1.00;;;;;;4961389;28;20426;-54
2022/06/02 08:22:16;;;;;;;8.00;7.40;;;17.70;1.00;;;;;;4969120;28;20532;-52
2022/06/02 08:24:56;;;;;;;7.17;6.63;;;17.90;1.00;;;;;;4972826;28;20439;-55
2022/06/02 08:27:52;;;;;;;6.80;6.30;;;17.90;1.00;;;;;;4971801;28;20786;-53
2022/06/02 08:30:20;;;;;;;7.87;7.37;;;18.00;1.00;;;;;;4960763;28;20780;-52
2022/06/02 08:33:19;;;;;;;7.40;7.00;;;18.00;1.00;;;;;;4971977;28;20549;-54
2022/06/02 08:35:47;;;;;;;7.03;6.53;;;18.00;1.00;;;;;;4963147;28;20550;-54
2022/06/02 08:38:35;;;;;;;7.10;6.70;;;18.10;1.00;;;;;;4972061;28;21140;-54
2022/06/02 08:41:29;;;;;;;6.43;6.03;;;18.30;1.00;;;;;;4969333;28;20452;-54
2022/06/02 08:44:25;;;;;;;5.90;5.50;;;18.40;1.00;;;;;;4953491;28;20417;-56
2022/06/02 08:47:33;;;;;;;6.40;6.00;;;18.50;1.00;;;;;;4959008;28;20550;-55
2022/06/02 08:50:20;;;;;;;4.90;4.60;;;18.50;99.90;;;;;;4961723;28;20428;-53
2022/06/02 08:53:14;;;;;;;5.80;5.50;;;18.60;99.90;;;;;;4972416;28;20455;-54
2022/06/02 08:56:02;;;;;;;5.90;5.60;;;18.60;99.90;;;;;;4967333;28;20526;-55
2022/06/02 08:58:50;;;;;;;6.40;6.00;;;18.60;99.90;;;;;;4975271;28;20439;-54
2022/06/02 09:01:50;;;;;;;5.40;5.10;;;18.80;99.90;;;;;;4982098;28;20480;-54
2022/06/02 09:04:36;;;;;;;5.97;5.47;;;19.10;99.90;;;;;;4972523;28;20419;-53
2022/06/02 09:07:22;;;;;;;6.40;6.00;;;19.40;99.90;;;;;;4969492;28;20934;-53
2022/06/02 09:10:09;;;;;;;6.00;5.70;;;19.60;99.90;;;;;;4965271;28;20643;-52
2022/06/02 09:13:12;;;;;;;6.30;5.90;;;19.50;99.90;;;;;;4967494;28;20435;-52
2022/06/02 09:15:56;;;;;;;6.60;6.20;;;19.30;99.90;;;;;;4979766;28;20464;-55
2022/06/02 09:18:44;;;;;;;5.87;5.57;;;19.40;99.90;;;;;;4969665;28;20435;-55
2022/06/02 09:21:33;;;;;;;5.43;5.23;;;20.00;99.90;;;;;;4971013;28;20507;-57
2022/06/02 09:24:27;;;;;;;6.63;6.30;;;20.40;99.90;;;;;;4966337;28;20436;-53
2022/06/02 09:26:59;;;;;;;6.47;6.17;;;20.50;99.90;;;;;;4970421;28;20439;-54
2022/06/02 09:29:46;;;;;;;6.30;6.00;;;20.70;99.90;;;;;;4976108;28;20474;-55
2022/06/02 09:32:23;;;;;;;5.90;5.60;;;21.10;99.90;;;;;;4967789;28;20449;-57
2022/06/02 09:34:51;;;;;;;5.93;5.63;;;21.40;99.90;;;;;;4971723;28;20536;-54
2022/06/02 09:37:34;;;;;;;6.00;5.70;;;21.70;99.90;;;;;;4970476;28;20470;-55
2022/06/02 09:40:21;;;;;;;5.23;5.03;;;21.60;99.90;;;;;;4986620;28;21504;-52
2022/06/02 09:43:20;;;;;;;5.27;4.97;;;21.80;99.90;;;;;;4984861;28;20434;-52
2022/06/02 09:46:14;;;;;;;6.50;6.10;;;22.10;99.90;;;;;;4971488;28;20449;-50
2022/06/02 09:49:07;;;;;;;6.20;5.90;;;22.50;99.90;;;;;;4960948;28;20437;-51
2022/06/02 09:52:00;;;;;;;6.53;6.23;;;21.60;99.90;;;;;;4971552;28;20902;-50
2022/06/02 09:54:35;;;;;;;5.83;5.53;;;21.90;99.90;;;;;;4970226;28;20844;-53
2022/06/02 10:00:18;;;;;;;6.30;6.00;;;22.50;99.90;;;;;;4968782;28;20548;-48
2022/06/02 10:03:17;;;;;;;6.07;5.63;;;22.90;99.90;;;;;;4970708;28;20430;-50
2022/06/02 10:05:58;;;;;;;6.30;6.00;;;23.40;99.90;;;;;;4976653;28;20539;-53
2022/06/02 10:09:11;;;;;;;6.20;5.90;;;24.20;99.90;;;;;;4971266;28;20833;-53
2022/06/02 10:12:54;;;;;;;6.90;6.50;;;24.60;99.90;;;;;;4963825;28;20958;-53
2022/06/02 10:14:59;;;;;;;6.17;5.87;;;24.40;99.90;;;;;;4955964;28;20441;-51
2022/06/02 10:17:40;;;;;;;6.00;5.70;;;23.70;99.90;;;;;;4970760;28;20439;-54
2022/06/02 10:20:21;;;;;;;6.17;5.80;;;23.80;99.90;;;;;;4968743;28;20435;-54
2022/06/02 10:23:04;;;;;;;6.60;6.10;;;23.70;99.90;;;;;;4961585;28;20471;-49
2022/06/02 10:25:38;;;;;;;7.53;7.13;;;24.10;99.90;;;;;;4970140;28;21003;-51
2022/06/02 10:28:23;;;;;;;7.13;6.77;;;24.10;99.90;;;;;;4964448;28;20779;-49
2022/06/02 10:31:04;;;;;;;7.33;6.93;;;23.90;99.90;;;;;;4970183;28;20420;-54
2022/06/02 10:34:04;;;;;;;7.13;6.73;;;24.60;99.90;;;;;;4970658;28;20820;-49
2022/06/02 10:36:45;;;;;;;7.17;6.87;;;25.40;99.90;;;;;;5011689;28;20496;-52
2022/06/02 10:39:50;;;;;;;9.30;8.70;;;26.10;99.90;;;;;;4965401;28;20505;-56
2022/06/02 10:42:18;;;;;;;8.30;7.90;;;27.30;99.90;;;;;;4958460;28;20507;-53
2022/06/02 10:45:13;;;;;;;5.70;5.40;;;27.80;99.90;;;;;;4972942;28;20439;-51
2022/06/02 10:48:06;;;;;;;6.40;6.10;;;27.90;99.90;;;;;;4969354;28;20424;-53
2022/06/02 10:51:05;;;;;;;7.80;7.40;;;26.00;99.90;;;;;;4970511;28;20498;-50
2022/06/02 10:54:06;;;;;;;7.17;6.87;;;26.40;99.90;;;;;;4957908;28;20439;-51
2022/06/02 10:56:56;;;;;;;7.60;7.20;;;26.00;99.90;;;;;;4975015;28;20918;-53
2022/06/02 11:00:02;;;;;;;8.87;8.37;;;25.70;99.90;;;;;;4963307;28;20443;-52
2022/06/02 11:02:50;;;;;;;7.77;7.37;;;25.70;99.90;;;;;;4948112;28;20474;-53
2022/06/02 11:05:45;;;;;;;6.70;6.30;;;26.50;99.90;;;;;;4980634;28;20430;-54
2022/06/02 11:08:36;;;;;;;6.40;6.03;;;27.40;99.90;;;;;;4958411;28;21092;-54
2022/06/02 11:11:07;;;;;;;6.13;5.83;;;27.30;99.90;;;;;;4969968;28;20499;-50
2022/06/02 11:14:09;;;;;;;5.60;5.33;;;26.60;99.90;;;;;;4968864;28;20439;-55
2022/06/02 11:17:04;;;;;;;5.70;5.30;;;26.20;99.90;;;;;;4969958;28;20497;-50
2022/06/02 11:19:48;;;;;;;9.30;8.80;;;26.20;99.90;;;;;;4968584;28;20448;-50
2022/06/02 11:22:53;;;;;;;6.07;5.77;;;26.90;99.90;;;;;;4969875;28;20435;-50
2022/06/02 11:25:56;;;;;;;6.73;6.43;;;27.00;99.90;;;;;;4963911;28;20442;-52
2022/06/02 11:29:16;;;;;;;6.23;5.93;;;26.90;99.90;;;;;;4969283;28;20442;-52
2022/06/02 11:32:24;;;;;;;7.40;6.90;;;27.40;99.90;;;;;;4967145;28;20450;-52
2022/06/02 11:35:05;;;;;;;5.30;5.00;;;26.20;99.90;;;;;;4976971;28;21179;-49
2022/06/02 11:38:14;;;;;;;6.20;5.90;;;26.80;99.90;;;;;;4969897;28;20490;-50
2022/06/02 11:40:45;;;;;;;6.23;5.93;;;26.80;99.90;;;;;;4992593;28;20567;-52
2022/06/02 11:43:26;;;;;;;6.50;6.20;;;27.30;99.90;;;;;;4969376;28;20427;-53
2022/06/02 11:46:34;;;;;;;7.50;7.07;;;27.90;99.90;;;;;;4956493;28;20441;-48
2022/06/02 11:49:24;;;;;;;6.50;6.07;;;28.60;99.90;;;;;;4973839;28;20986;-54
2022/06/02 11:52:00;;;;;;;6.63;6.27;;;29.40;99.90;;;;;;4969294;28;21186;-53
2022/06/02 11:55:02;;;;;;;6.50;6.10;;;30.20;99.90;;;;;;4968970;28;20478;-50
2022/06/02 11:57:41;;;;;;;6.07;5.77;;;29.30;99.90;;;;;;4966699;28;20551;-51
2022/06/02 12:00:28;;;;;;;6.00;5.70;;;28.40;99.90;;;;;;4967022;28;20439;-51
2022/06/02 12:03:24;;;;;;;5.80;5.50;;;28.00;99.90;;;;;;4958235;28;20433;-54
2022/06/02 12:06:27;;;;;;;6.10;5.80;;;28.30;99.90;;;;;;4962927;28;20516;-53
2022/06/02 12:09:08;;;;;;;6.17;5.80;;;29.00;99.90;;;;;;4966548;28;20438;-52
2022/06/02 12:11:41;;;;;;;7.00;6.70;;;29.50;99.90;;;;;;4980039;28;20892;-55
2022/06/02 12:14:09;;;;;;;7.30;7.00;;;29.90;99.90;;;;;;4957334;28;20426;-52
2022/06/02 12:16:50;;;;;;;6.87;6.57;;;29.90;99.90;;;;;;4966707;28;20966;-53
2022/06/02 12:19:40;;;;;;;6.00;5.70;;;30.10;99.90;;;;;;4958221;28;20435;-53
2022/06/02 12:22:20;;;;;;;6.70;6.40;;;30.20;99.90;;;;;;4964232;28;20428;-55
2022/06/02 12:24:55;;;;;;;8.73;7.47;;;29.20;99.90;;;;;;4965611;28;20498;-54
2022/06/02 12:27:43;;;;;;;6.63;6.33;;;29.00;99.90;;;;;;4969776;28;20441;-51
2022/06/02 12:30:27;;;;;;;6.30;6.00;;;29.50;99.90;;;;;;4968487;28;20602;-54
2022/06/02 12:33:27;;;;;;;6.70;6.40;;;29.90;99.90;;;;;;4970529;28;20435;-56
2022/06/02 12:36:08;;;;;;;5.77;5.57;;;29.70;99.90;;;;;;4975904;28;20541;-53
2022/06/02 12:38:52;;;;;;;6.13;5.63;;;29.90;99.90;;;;;;4971830;28;20447;-55
2022/06/02 12:42:07;;;;;;;6.23;5.93;;;30.20;99.90;;;;;;4972653;28;20427;-55
2022/06/02 12:45:01;;;;;;;6.63;6.33;;;30.50;99.90;;;;;;4970912;28;20495;-55
2022/06/02 12:47:55;;;;;;;6.30;6.00;;;30.70;99.90;;;;;;4961402;28;20412;-54
2022/06/02 12:50:35;;;;;;;6.80;6.50;;;30.70;99.90;;;;;;4960044;28;20607;-53
2022/06/02 12:53:15;;;;;;;6.90;6.60;;;31.00;99.90;;;;;;4978317;28;20918;-53
2022/06/02 12:55:46;;;;;;;7.43;7.13;;;30.60;99.90;;;;;;4974336;28;20499;-51
2022/06/02 12:58:47;;;;;;;6.97;6.67;;;29.70;99.90;;;;;;4972205;28;20953;-51
2022/06/02 13:01:46;;;;;;;6.10;5.80;;;29.00;99.90;;;;;;4969147;28;21182;-52
2022/06/02 13:04:36;;;;;;;6.60;6.30;;;29.40;99.90;;;;;;4971250;28;21170;-52
2022/06/02 13:07:13;;;;;;;6.40;6.10;;;29.30;99.90;;;;;;4972227;28;20455;-53
2022/06/02 13:10:10;;;;;;;6.30;5.90;;;29.00;99.90;;;;;;4968035;28;20994;-52
2022/06/02 13:13:05;;;;;;;6.27;5.97;;;29.30;99.90;;;;;;4969070;28;20546;-57
2022/06/02 13:15:55;;;;;;;5.23;5.03;;;30.20;99.90;;;;;;4970196;28;20467;-54
2022/06/02 13:18:30;;;;;;;5.40;5.10;;;30.80;99.90;;;;;;4971406;28;20444;-54
2022/06/02 13:21:21;;;;;;;6.00;5.70;;;31.50;99.90;;;;;;4968569;28;20842;-56
2022/06/02 13:24:18;;;;;;;6.23;5.93;;;31.80;99.90;;;;;;4971988;28;20431;-51
2022/06/02 13:27:15;;;;;;;7.03;6.63;;;31.80;99.90;;;;;;4972537;28;20445;-53
2022/06/02 13:30:01;;;;;;;6.73;6.43;;;31.40;99.90;;;;;;4969197;28;20479;-53
2022/06/02 13:32:52;;;;;;;6.50;6.20;;;31.10;99.90;;;;;;4971859;28;20424;-51
2022/06/02 13:35:45;;;;;;;6.20;6.00;;;31.10;99.90;;;;;;4968546;28;20449;-54
2022/06/02 13:38:36;;;;;;;6.50;6.20;;;31.70;99.90;;;;;;4964898;28;20516;-55
2022/06/02 13:41:07;;;;;;;5.73;5.43;;;32.30;99.90;;;;;;4964318;28;20537;-53
2022/06/02 13:44:13;;;;;;;6.63;6.33;;;32.10;99.90;;;;;;4967936;28;20420;-55
2022/06/02 13:46:54;;;;;;;6.13;5.93;;;31.80;99.90;;;;;;4972115;28;20501;-53
2022/06/02 13:49:55;;;;;;;6.47;6.17;;;32.10;99.90;;;;;;4981181;28;20476;-54
2022/06/02 13:52:45;;;;;;;6.47;6.23;;;32.40;99.90;;;;;;4972580;28;20448;-51
2022/06/02 13:58:46;;;;;;;7.20;6.90;;;32.50;99.90;;;;;;4970560;28;20451;-54
2022/06/02 14:01:30;;;;;;;7.07;6.77;;;32.90;99.90;;;;;;4970173;28;20420;-53
2022/06/02 14:04:23;;;;;;;7.23;6.93;;;32.60;99.90;;;;;;4964722;28;20421;-51
2022/06/02 14:07:15;;;;;;;7.17;6.77;;;31.90;99.90;;;;;;4959313;28;20428;-52
2022/06/02 14:09:59;;;;;;;7.03;6.73;;;32.10;99.90;;;;;;4978014;28;20453;-52
2022/06/02 14:12:37;;;;;;;6.80;6.50;;;32.60;99.90;;;;;;4959748;28;20441;-54
2022/06/02 14:15:12;;;;;;;7.00;6.70;;;32.70;99.90;;;;;;4957514;28;20436;-54
2022/06/02 14:18:21;;;;;;;7.20;6.80;;;32.90;99.90;;;;;;4968881;28;20443;-51
2022/06/02 14:21:05;;;;;;;7.00;6.70;;;32.70;99.90;;;;;;4964015;28;20435;-51
2022/06/02 14:23:52;;;;;;;7.50;7.10;;;32.00;99.90;;;;;;4964810;28;20495;-54
2022/06/02 14:26:58;;;;;;;7.73;7.40;;;31.10;99.90;;;;;;4959197;28;20834;-55
2022/06/02 14:29:41;;;;;;;6.97;6.67;;;30.80;99.90;;;;;;4990063;28;20448;-50
2022/06/02 14:32:41;;;;;;;6.83;6.53;;;31.00;99.90;;;;;;4964544;28;20434;-54
2022/06/02 14:35:39;;;;;;;6.70;6.40;;;31.30;99.90;;;;;;4959700;28;20435;-55
2022/06/02 14:38:11;;;;;;;6.97;6.57;;;31.60;99.90;;;;;;4959633;28;20471;-54